sensor_id;sensor_type;location;lat;lon;timestamp;P1;durP1;ratioP1;P2;durP2;ratioP2
32850;SDS011;19202;48.992;8.390;2023-02-01T00:04:17;11.27;;;6.28;;
32850;SDS011;19202;48.992;8.390;2023-02-01T00:09:55;9.77;;;5.30;;
32850;SDS011;19202;48.992;8.390;2023-02-01T00:15:33;9.55;;;5.63;;
32850;SDS011;19202;48.992;8.390;2023-02-01T00:21:12;7.45;;;5.22;;
32850;SDS011;19202;48.992;8.390;2023-02-01T00:26:52;11.60;;;5.75;;
32850;SDS011;19202;48.992;8.390;2023-02-01T00:32:30;10.05;;;5.38;;
32850;SDS011;19202;48.992;8.390;2023-02-01T00:38:09;7.03;;;4.88;;
32850;SDS011;19202;48.992;8.390;2023-02-01T00:43:47;6.45;;;4.45;;
32850;SDS011;19202;48.992;8.390;2023-02-01T00:49:26;6.25;;;4.10;;
32850;SDS011;19202;48.992;8.390;2023-02-01T00:55:05;8.40;;;4.72;;
32850;SDS011;19202;48.992;8.390;2023-02-01T01:00:44;8.52;;;4.72;;
32850;SDS011;19202;48.992;8.390;2023-02-01T01:06:23;8.25;;;4.47;;
32850;SDS011;19202;48.992;8.390;2023-02-01T01:12:02;7.22;;;4.30;;
32850;SDS011;19202;48.992;8.390;2023-02-01T01:17:40;7.18;;;4.60;;
32850;SDS011;19202;48.992;8.390;2023-02-01T01:23:18;6.18;;;4.10;;
32850;SDS011;19202;48.992;8.390;2023-02-01T01:28:57;6.82;;;4.03;;
32850;SDS011;19202;48.992;8.390;2023-02-01T01:34:36;8.48;;;4.38;;
32850;SDS011;19202;48.992;8.390;2023-02-01T01:40:14;6.00;;;3.97;;
32850;SDS011;19202;48.992;8.390;2023-02-01T01:45:52;7.70;;;3.95;;
32850;SDS011;19202;48.992;8.390;2023-02-01T01:51:30;6.63;;;3.92;;
32850;SDS011;19202;48.992;8.390;2023-02-01T01:57:16;6.35;;;4.00;;
32850;SDS011;19202;48.992;8.390;2023-02-01T02:03:18;6.53;;;3.95;;
32850;SDS011;19202;48.992;8.390;2023-02-01T02:09:01;7.03;;;4.07;;
32850;SDS011;19202;48.992;8.390;2023-02-01T02:14:41;5.68;;;3.83;;
32850;SDS011;19202;48.992;8.390;2023-02-01T02:32:23;6.25;;;4.00;;
32850;SDS011;19202;48.992;8.390;2023-02-01T02:38:26;6.13;;;3.97;;
32850;SDS011;19202;48.992;8.390;2023-02-01T02:44:15;6.93;;;3.67;;
32850;SDS011;19202;48.992;8.390;2023-02-01T02:56:38;4.73;;;3.37;;
32850;SDS011;19202;48.992;8.390;2023-02-01T03:02:36;5.30;;;3.20;;
32850;SDS011;19202;48.992;8.390;2023-02-01T03:08:34;6.22;;;3.42;;
32850;SDS011;19202;48.992;8.390;2023-02-01T03:14:12;13.68;;;4.78;;
32850;SDS011;19202;48.992;8.390;2023-02-01T03:19:53;46.03;;;11.63;;
32850;SDS011;19202;48.992;8.390;2023-02-01T03:25:33;13.50;;;5.03;;
32850;SDS011;19202;48.992;8.390;2023-02-01T03:31:12;20.85;;;7.20;;
32850;SDS011;19202;48.992;8.390;2023-02-01T03:36:52;4.95;;;3.42;;
32850;SDS011;19202;48.992;8.390;2023-02-01T03:42:43;5.18;;;3.40;;
32850;SDS011;19202;48.992;8.390;2023-02-01T03:48:24;5.55;;;3.42;;
32850;SDS011;19202;48.992;8.390;2023-02-01T03:54:04;6.28;;;3.60;;
32850;SDS011;19202;48.992;8.390;2023-02-01T03:59:46;4.18;;;3.33;;
32850;SDS011;19202;48.992;8.390;2023-02-01T04:05:24;5.38;;;3.33;;
32850;SDS011;19202;48.992;8.390;2023-02-01T04:11:03;4.88;;;3.22;;
32850;SDS011;19202;48.992;8.390;2023-02-01T04:16:40;7.20;;;3.50;;
32850;SDS011;19202;48.992;8.390;2023-02-01T04:22:18;6.97;;;3.47;;
32850;SDS011;19202;48.992;8.390;2023-02-01T04:27:56;5.72;;;3.53;;
32850;SDS011;19202;48.992;8.390;2023-02-01T04:33:34;6.00;;;3.40;;
32850;SDS011;19202;48.992;8.390;2023-02-01T04:39:13;6.53;;;3.50;;
32850;SDS011;19202;48.992;8.390;2023-02-01T04:44:51;4.55;;;3.35;;
32850;SDS011;19202;48.992;8.390;2023-02-01T04:50:29;5.68;;;2.92;;
32850;SDS011;19202;48.992;8.390;2023-02-01T04:56:07;5.10;;;2.97;;
32850;SDS011;19202;48.992;8.390;2023-02-01T05:01:45;6.13;;;3.60;;
32850;SDS011;19202;48.992;8.390;2023-02-01T05:07:23;6.18;;;3.65;;
32850;SDS011;19202;48.992;8.390;2023-02-01T05:13:03;7.03;;;3.13;;
32850;SDS011;19202;48.992;8.390;2023-02-01T05:18:59;6.63;;;3.40;;
32850;SDS011;19202;48.992;8.390;2023-02-01T05:24:37;10.95;;;4.63;;
32850;SDS011;19202;48.992;8.390;2023-02-01T05:30:15;6.15;;;3.63;;
32850;SDS011;19202;48.992;8.390;2023-02-01T05:35:53;6.65;;;4.15;;
32850;SDS011;19202;48.992;8.390;2023-02-01T05:41:31;6.72;;;3.85;;
32850;SDS011;19202;48.992;8.390;2023-02-01T05:47:09;5.68;;;2.97;;
32850;SDS011;19202;48.992;8.390;2023-02-01T05:52:47;5.57;;;3.17;;
32850;SDS011;19202;48.992;8.390;2023-02-01T05:58:25;5.20;;;3.45;;
32850;SDS011;19202;48.992;8.390;2023-02-01T06:04:03;6.30;;;3.25;;
32850;SDS011;19202;48.992;8.390;2023-02-01T06:09:41;6.38;;;3.20;;
32850;SDS011;19202;48.992;8.390;2023-02-01T06:15:19;8.20;;;3.53;;
32850;SDS011;19202;48.992;8.390;2023-02-01T06:20:57;5.32;;;3.58;;
32850;SDS011;19202;48.992;8.390;2023-02-01T06:26:38;7.35;;;4.05;;
32850;SDS011;19202;48.992;8.390;2023-02-01T06:32:17;8.52;;;4.60;;
32850;SDS011;19202;48.992;8.390;2023-02-01T06:37:55;10.35;;;3.40;;
32850;SDS011;19202;48.992;8.390;2023-02-01T06:43:36;6.95;;;3.65;;
32850;SDS011;19202;48.992;8.390;2023-02-01T06:49:14;5.50;;;3.28;;
32850;SDS011;19202;48.992;8.390;2023-02-01T06:54:52;4.65;;;3.25;;
32850;SDS011;19202;48.992;8.390;2023-02-01T07:00:30;8.93;;;3.55;;
32850;SDS011;19202;48.992;8.390;2023-02-01T07:06:08;7.63;;;3.78;;
32850;SDS011;19202;48.992;8.390;2023-02-01T07:11:47;5.65;;;3.33;;
32850;SDS011;19202;48.992;8.390;2023-02-01T07:17:25;10.85;;;4.85;;
32850;SDS011;19202;48.992;8.390;2023-02-01T07:23:03;5.35;;;3.75;;
32850;SDS011;19202;48.992;8.390;2023-02-01T07:28:41;7.25;;;4.03;;
32850;SDS011;19202;48.992;8.390;2023-02-01T07:34:19;6.57;;;4.00;;
32850;SDS011;19202;48.992;8.390;2023-02-01T07:39:57;6.85;;;4.07;;
32850;SDS011;19202;48.992;8.390;2023-02-01T07:45:35;9.25;;;4.18;;
32850;SDS011;19202;48.992;8.390;2023-02-01T07:51:15;11.18;;;4.38;;
32850;SDS011;19202;48.992;8.390;2023-02-01T07:56:54;6.35;;;4.00;;
32850;SDS011;19202;48.992;8.390;2023-02-01T08:02:32;4.95;;;3.63;;
32850;SDS011;19202;48.992;8.390;2023-02-01T08:08:10;7.03;;;3.67;;
32850;SDS011;19202;48.992;8.390;2023-02-01T08:13:48;5.70;;;3.63;;
32850;SDS011;19202;48.992;8.390;2023-02-01T08:19:27;6.25;;;3.53;;
32850;SDS011;19202;48.992;8.390;2023-02-01T08:25:05;5.40;;;2.88;;
32850;SDS011;19202;48.992;8.390;2023-02-01T08:30:44;6.13;;;3.30;;
32850;SDS011;19202;48.992;8.390;2023-02-01T08:36:22;5.30;;;3.05;;
32850;SDS011;19202;48.992;8.390;2023-02-01T08:42:02;4.80;;;3.15;;
32850;SDS011;19202;48.992;8.390;2023-02-01T08:47:59;7.90;;;3.17;;
32850;SDS011;19202;48.992;8.390;2023-02-01T08:53:38;7.97;;;3.45;;
32850;SDS011;19202;48.992;8.390;2023-02-01T08:59:18;7.57;;;3.65;;
32850;SDS011;19202;48.992;8.390;2023-02-01T09:04:56;7.53;;;3.20;;
32850;SDS011;19202;48.992;8.390;2023-02-01T09:10:34;3.95;;;2.80;;
32850;SDS011;19202;48.992;8.390;2023-02-01T09:16:14;10.25;;;3.10;;
32850;SDS011;19202;48.992;8.390;2023-02-01T09:21:52;9.07;;;3.22;;
32850;SDS011;19202;48.992;8.390;2023-02-01T09:27:30;6.70;;;3.55;;
32850;SDS011;19202;48.992;8.390;2023-02-01T09:33:08;6.10;;;2.55;;
32850;SDS011;19202;48.992;8.390;2023-02-01T09:38:46;5.65;;;2.58;;
32850;SDS011;19202;48.992;8.390;2023-02-01T09:50:34;10.02;;;2.80;;
32850;SDS011;19202;48.992;8.390;2023-02-01T09:56:20;5.15;;;2.78;;
32850;SDS011;19202;48.992;8.390;2023-02-01T10:02:02;8.10;;;2.50;;
32850;SDS011;19202;48.992;8.390;2023-02-01T10:08:03;6.93;;;2.70;;
32850;SDS011;19202;48.992;8.390;2023-02-01T10:19:38;9.18;;;3.00;;
32850;SDS011;19202;48.992;8.390;2023-02-01T10:25:26;11.23;;;3.30;;
32850;SDS011;19202;48.992;8.390;2023-02-01T10:31:18;6.68;;;3.15;;
32850;SDS011;19202;48.992;8.390;2023-02-01T10:37:20;6.88;;;3.17;;
32850;SDS011;19202;48.992;8.390;2023-02-01T10:43:05;10.15;;;2.70;;
32850;SDS011;19202;48.992;8.390;2023-02-01T10:48:43;5.57;;;2.78;;
32850;SDS011;19202;48.992;8.390;2023-02-01T10:54:22;6.10;;;2.67;;
32850;SDS011;19202;48.992;8.390;2023-02-01T11:00:22;7.97;;;2.95;;
32850;SDS011;19202;48.992;8.390;2023-02-01T11:06:00;9.18;;;2.72;;
32850;SDS011;19202;48.992;8.390;2023-02-01T11:17:25;7.57;;;2.78;;
32850;SDS011;19202;48.992;8.390;2023-02-01T11:23:18;12.45;;;2.72;;
32850;SDS011;19202;48.992;8.390;2023-02-01T11:29:08;9.48;;;3.40;;
32850;SDS011;19202;48.992;8.390;2023-02-01T11:34:52;10.63;;;3.42;;
32850;SDS011;19202;48.992;8.390;2023-02-01T11:40:34;10.95;;;2.92;;
32850;SDS011;19202;48.992;8.390;2023-02-01T11:46:17;6.63;;;3.08;;
32850;SDS011;19202;48.992;8.390;2023-02-01T12:04:35;11.18;;;3.40;;
32850;SDS011;19202;48.992;8.390;2023-02-01T12:16:37;15.95;;;4.55;;
32850;SDS011;19202;48.992;8.390;2023-02-01T12:22:29;13.02;;;4.47;;
32850;SDS011;19202;48.992;8.390;2023-02-01T12:40:22;14.23;;;3.70;;
32850;SDS011;19202;48.992;8.390;2023-02-01T12:46:21;11.48;;;3.97;;
32850;SDS011;19202;48.992;8.390;2023-02-01T12:52:04;11.52;;;4.38;;
32850;SDS011;19202;48.992;8.390;2023-02-01T13:03:33;11.65;;;4.07;;
32850;SDS011;19202;48.992;8.390;2023-02-01T13:09:22;9.30;;;3.33;;
32850;SDS011;19202;48.992;8.390;2023-02-01T13:21:47;8.60;;;3.85;;
32850;SDS011;19202;48.992;8.390;2023-02-01T13:27:27;11.13;;;4.13;;
32850;SDS011;19202;48.992;8.390;2023-02-01T13:45:19;21.27;;;6.28;;
32850;SDS011;19202;48.992;8.390;2023-02-01T13:51:01;17.15;;;4.47;;
32850;SDS011;19202;48.992;8.390;2023-02-01T13:56:40;20.92;;;4.70;;
32850;SDS011;19202;48.992;8.390;2023-02-01T14:02:36;12.20;;;4.10;;
32850;SDS011;19202;48.992;8.390;2023-02-01T14:08:37;18.02;;;4.38;;
32850;SDS011;19202;48.992;8.390;2023-02-01T14:20:36;24.40;;;5.38;;
32850;SDS011;19202;48.992;8.390;2023-02-01T14:26:15;21.15;;;5.38;;
32850;SDS011;19202;48.992;8.390;2023-02-01T14:37:59;23.38;;;5.85;;
32850;SDS011;19202;48.992;8.390;2023-02-01T15:01:52;25.90;;;5.72;;
32850;SDS011;19202;48.992;8.390;2023-02-01T15:07:34;16.27;;;4.75;;
32850;SDS011;19202;48.992;8.390;2023-02-01T15:13:20;18.83;;;5.18;;
32850;SDS011;19202;48.992;8.390;2023-02-01T15:19:06;15.55;;;5.05;;
32850;SDS011;19202;48.992;8.390;2023-02-01T15:24:52;23.42;;;5.53;;
32850;SDS011;19202;48.992;8.390;2023-02-01T15:30:35;13.57;;;5.30;;
32850;SDS011;19202;48.992;8.390;2023-02-01T15:36:17;16.45;;;4.47;;
32850;SDS011;19202;48.992;8.390;2023-02-01T15:41:57;14.65;;;4.47;;
32850;SDS011;19202;48.992;8.390;2023-02-01T15:47:40;18.63;;;5.03;;
32850;SDS011;19202;48.992;8.390;2023-02-01T15:53:19;7.13;;;2.72;;
32850;SDS011;19202;48.992;8.390;2023-02-01T15:59:00;10.30;;;2.67;;
32850;SDS011;19202;48.992;8.390;2023-02-01T16:04:46;15.30;;;3.40;;
32850;SDS011;19202;48.992;8.390;2023-02-01T16:10:28;19.95;;;4.40;;
32850;SDS011;19202;48.992;8.390;2023-02-01T16:16:07;13.20;;;3.25;;
32850;SDS011;19202;48.992;8.390;2023-02-01T16:21:51;10.15;;;2.58;;
32850;SDS011;19202;48.992;8.390;2023-02-01T16:27:29;11.23;;;2.58;;
32850;SDS011;19202;48.992;8.390;2023-02-01T16:33:10;11.57;;;2.80;;
32850;SDS011;19202;48.992;8.390;2023-02-01T16:38:53;12.07;;;3.05;;
32850;SDS011;19202;48.992;8.390;2023-02-01T16:44:32;9.40;;;3.00;;
32850;SDS011;19202;48.992;8.390;2023-02-01T16:50:17;13.70;;;2.63;;
32850;SDS011;19202;48.992;8.390;2023-02-01T16:55:58;8.27;;;2.63;;
32850;SDS011;19202;48.992;8.390;2023-02-01T17:01:37;17.05;;;2.97;;
32850;SDS011;19202;48.992;8.390;2023-02-01T17:07:17;12.60;;;3.60;;
32850;SDS011;19202;48.992;8.390;2023-02-01T17:12:56;11.80;;;2.90;;
32850;SDS011;19202;48.992;8.390;2023-02-01T17:18:35;10.65;;;3.15;;
32850;SDS011;19202;48.992;8.390;2023-02-01T17:24:13;13.90;;;3.28;;
32850;SDS011;19202;48.992;8.390;2023-02-01T17:29:52;11.20;;;2.53;;
32850;SDS011;19202;48.992;8.390;2023-02-01T17:35:31;13.18;;;3.50;;
32850;SDS011;19202;48.992;8.390;2023-02-01T17:41:10;19.70;;;3.55;;
32850;SDS011;19202;48.992;8.390;2023-02-01T17:46:49;11.65;;;3.20;;
32850;SDS011;19202;48.992;8.390;2023-02-01T17:52:27;10.45;;;3.88;;
32850;SDS011;19202;48.992;8.390;2023-02-01T17:58:07;13.80;;;3.25;;
32850;SDS011;19202;48.992;8.390;2023-02-01T18:03:46;8.20;;;3.30;;
32850;SDS011;19202;48.992;8.390;2023-02-01T18:09:25;9.43;;;2.97;;
32850;SDS011;19202;48.992;8.390;2023-02-01T18:15:14;11.60;;;3.80;;
32850;SDS011;19202;48.992;8.390;2023-02-01T18:20:54;10.88;;;2.88;;
32850;SDS011;19202;48.992;8.390;2023-02-01T18:26:32;10.90;;;3.03;;
32850;SDS011;19202;48.992;8.390;2023-02-01T18:32:10;14.52;;;3.05;;
32850;SDS011;19202;48.992;8.390;2023-02-01T18:37:48;11.85;;;3.53;;
32850;SDS011;19202;48.992;8.390;2023-02-01T18:43:27;16.67;;;4.00;;
32850;SDS011;19202;48.992;8.390;2023-02-01T18:49:05;8.55;;;2.75;;
32850;SDS011;19202;48.992;8.390;2023-02-01T18:54:43;8.40;;;2.42;;
32850;SDS011;19202;48.992;8.390;2023-02-01T19:00:21;13.55;;;2.90;;
32850;SDS011;19202;48.992;8.390;2023-02-01T19:05:59;17.98;;;2.90;;
32850;SDS011;19202;48.992;8.390;2023-02-01T19:11:37;7.90;;;3.25;;
32850;SDS011;19202;48.992;8.390;2023-02-01T19:17:15;10.18;;;2.92;;
32850;SDS011;19202;48.992;8.390;2023-02-01T19:22:53;13.52;;;3.50;;
32850;SDS011;19202;48.992;8.390;2023-02-01T19:28:31;10.57;;;2.85;;
32850;SDS011;19202;48.992;8.390;2023-02-01T19:34:09;9.35;;;2.75;;
32850;SDS011;19202;48.992;8.390;2023-02-01T19:39:47;10.35;;;3.28;;
32850;SDS011;19202;48.992;8.390;2023-02-01T19:45:25;8.15;;;2.80;;
32850;SDS011;19202;48.992;8.390;2023-02-01T19:51:03;9.82;;;2.80;;
32850;SDS011;19202;48.992;8.390;2023-02-01T19:56:41;10.93;;;2.53;;
32850;SDS011;19202;48.992;8.390;2023-02-01T20:02:21;10.48;;;2.67;;
32850;SDS011;19202;48.992;8.390;2023-02-01T20:08:00;9.63;;;3.00;;
32850;SDS011;19202;48.992;8.390;2023-02-01T20:13:39;11.77;;;3.58;;
32850;SDS011;19202;48.992;8.390;2023-02-01T20:19:17;12.73;;;3.38;;
32850;SDS011;19202;48.992;8.390;2023-02-01T20:24:54;14.55;;;3.30;;
32850;SDS011;19202;48.992;8.390;2023-02-01T20:30:35;12.55;;;3.08;;
32850;SDS011;19202;48.992;8.390;2023-02-01T20:36:12;19.17;;;5.05;;
32850;SDS011;19202;48.992;8.390;2023-02-01T20:41:50;12.95;;;3.60;;
32850;SDS011;19202;48.992;8.390;2023-02-01T20:47:28;8.57;;;2.80;;
32850;SDS011;19202;48.992;8.390;2023-02-01T20:53:06;11.95;;;3.10;;
32850;SDS011;19202;48.992;8.390;2023-02-01T20:58:44;11.95;;;3.10;;
32850;SDS011;19202;48.992;8.390;2023-02-01T21:04:23;10.52;;;3.38;;
32850;SDS011;19202;48.992;8.390;2023-02-01T21:10:04;12.98;;;3.15;;
32850;SDS011;19202;48.992;8.390;2023-02-01T21:15:42;15.27;;;2.95;;
32850;SDS011;19202;48.992;8.390;2023-02-01T21:21:20;12.68;;;2.97;;
32850;SDS011;19202;48.992;8.390;2023-02-01T21:26:59;12.18;;;2.85;;
32850;SDS011;19202;48.992;8.390;2023-02-01T21:32:36;12.65;;;3.05;;
32850;SDS011;19202;48.992;8.390;2023-02-01T21:38:14;12.80;;;3.25;;
32850;SDS011;19202;48.992;8.390;2023-02-01T21:43:53;18.63;;;2.90;;
32850;SDS011;19202;48.992;8.390;2023-02-01T21:49:30;8.75;;;2.70;;
32850;SDS011;19202;48.992;8.390;2023-02-01T21:55:09;12.65;;;3.20;;
32850;SDS011;19202;48.992;8.390;2023-02-01T22:00:48;13.82;;;2.60;;
32850;SDS011;19202;48.992;8.390;2023-02-01T22:06:27;9.82;;;2.65;;
32850;SDS011;19202;48.992;8.390;2023-02-01T22:12:08;6.97;;;2.92;;
32850;SDS011;19202;48.992;8.390;2023-02-01T22:17:49;8.38;;;2.88;;
32850;SDS011;19202;48.992;8.390;2023-02-01T22:23:27;9.68;;;2.88;;
32850;SDS011;19202;48.992;8.390;2023-02-01T22:29:05;11.68;;;2.53;;
32850;SDS011;19202;48.992;8.390;2023-02-01T22:34:44;10.10;;;3.15;;
32850;SDS011;19202;48.992;8.390;2023-02-01T22:40:22;11.23;;;3.22;;
32850;SDS011;19202;48.992;8.390;2023-02-01T22:46:00;6.68;;;2.53;;
32850;SDS011;19202;48.992;8.390;2023-02-01T22:51:40;15.50;;;2.78;;
32850;SDS011;19202;48.992;8.390;2023-02-01T22:57:18;10.50;;;3.05;;
32850;SDS011;19202;48.992;8.390;2023-02-01T23:02:56;10.95;;;3.05;;
32850;SDS011;19202;48.992;8.390;2023-02-01T23:08:34;13.50;;;2.92;;
32850;SDS011;19202;48.992;8.390;2023-02-01T23:14:12;11.13;;;3.72;;
32850;SDS011;19202;48.992;8.390;2023-02-01T23:19:52;12.20;;;3.08;;
32850;SDS011;19202;48.992;8.390;2023-02-01T23:25:30;10.70;;;2.92;;
32850;SDS011;19202;48.992;8.390;2023-02-01T23:31:09;11.90;;;3.17;;
32850;SDS011;19202;48.992;8.390;2023-02-01T23:36:49;7.65;;;3.00;;
32850;SDS011;19202;48.992;8.390;2023-02-01T23:42:27;9.48;;;2.70;;
32850;SDS011;19202;48.992;8.390;2023-02-01T23:48:05;12.20;;;3.28;;
32850;SDS011;19202;48.992;8.390;2023-02-01T23:53:42;12.40;;;3.80;;
32850;SDS011;19202;48.992;8.390;2023-02-01T23:59:24;8.65;;;3.08;;
